This is the latest recevied weather packets stored in our database for station/object VA7NEZ. If no packets are shown the sender has not sent any weather packets the latest 10 day(s).
| Time | Temp. | Humidity | Pressure | Rain* | Wind** | Luminosity | Snow |
|---|---|---|---|---|---|---|---|
| 1777635477 | 0° C | 100% | 1018 hPa | 0 mm | - | - | - |
| 1777634916 | 0° C | 100% | 1017.9 hPa | 0 mm | - | - | - |
| 1777634326 | 0° C | 100% | 1017.8 hPa | 0 mm | - | - | - |
| 1777633761 | 0° C | 100% | 1017.9 hPa | 0 mm | - | - | - |
| 1777633266 | 0° C | 100% | 1017.7 hPa | 0 mm | - | - | - |
| 1777632786 | 0° C | 100% | 1018 hPa | 0 mm | - | - | - |
| 1777631737 | 0° C | 100% | 1017.7 hPa | 0 mm | - | - | - |
| 1777631181 | 0° C | 100% | 1017.8 hPa | 0 mm | - | - | - |
| 1777630667 | 0° C | 100% | 1017.7 hPa | 0 mm | - | - | - |
| 1777630181 | 0° C | 100% | 1017.6 hPa | 0 mm | - | - | - |
| 1777629581 | 0° C | 100% | 1017.6 hPa | 0 mm | - | - | - |
| 1777629026 | 0° C | 100% | 1017.5 hPa | 0 mm | - | - | - |
| 1777628016 | 0° C | 100% | 1017.6 hPa | 0 mm | - | - | - |
| 1777627436 | 0° C | 100% | 1017.4 hPa | 0 mm | - | - | - |
| 1777626916 | 0° C | 100% | 1017.6 hPa | 0 mm | - | - | - |
| 1777626316 | 0° C | 100% | 1017.5 hPa | 0 mm | - | - | - |
| 1777625239 | 10° C | 61% | 1017.7 hPa | 0 mm | - | - | - |
| 1777624641 | 0° C | 100% | 1017.5 hPa | 0 mm | - | - | - |
| 1777624087 | 10.56° C | 60% | 1017.4 hPa | 0 mm | - | - | - |
| 1777623586 | 10.56° C | 59% | 1017.6 hPa | 0 mm | - | - | - |
| 1777623097 | 10.56° C | 60% | 1017.5 hPa | 0 mm | - | - | - |
| 1777622501 | 11.11° C | 58% | 1017.6 hPa | 0 mm | - | - | - |
| 1777621996 | 11.11° C | 62% | 1017.5 hPa | 0 mm | - | - | - |
| 1777621471 | 11.67° C | 57% | 1017.3 hPa | 0 mm | - | - | - |
| 1777620911 | 11.67° C | 57% | 1017.3 hPa | 0 mm | - | - | - |
* Rain latest hour (hover to see other rain measurements)
** Current wind speed in m/s (hover to see current wind gust speed)